createdAt,value
2022-10-05T00:01:34.753Z,97157.81
2022-10-05T00:04:12.017Z,97158.63
2022-10-05T00:06:41.390Z,97149.06
2022-10-05T00:09:14.503Z,97149.88
2022-10-05T00:11:44.432Z,97141.38
2022-10-05T00:14:21.516Z,97135.97
2022-10-05T00:16:52.013Z,97127.06
2022-10-05T00:19:33.880Z,97122.78
2022-10-05T00:22:12.421Z,97122.56
2022-10-05T00:24:41.103Z,97119.25
2022-10-05T00:27:18.535Z,97118.47
2022-10-05T00:29:47.349Z,97120.16
2022-10-05T00:32:18.331Z,97128.44
2022-10-05T00:34:47.814Z,97122.31
2022-10-05T00:37:17.004Z,97119.22
2022-10-05T00:39:45.537Z,97113.88
2022-10-05T00:42:26.403Z,97106.59
2022-10-05T00:44:58.335Z,97101.75
2022-10-05T00:47:47.695Z,97099.66
2022-10-05T00:50:35.932Z,97094.69
2022-10-05T00:53:13.066Z,97093.53
2022-10-05T00:55:55.490Z,97098.97
2022-10-05T00:58:39.465Z,97092.28
2022-10-05T01:01:12.421Z,97090.97
2022-10-05T01:03:57.607Z,97092.06
2022-10-05T01:06:34.913Z,97097.09
2022-10-05T01:09:10.704Z,97089.56
2022-10-05T01:11:47.556Z,97090.38
2022-10-05T01:14:22.982Z,97084.78
2022-10-05T01:16:56.693Z,97062.84
2022-10-05T01:19:44.253Z,97074.03
2022-10-05T01:22:24.216Z,97075.91
2022-10-05T01:25:08.274Z,97073.22
2022-10-05T01:27:43.840Z,97072.00
2022-10-05T01:30:14.091Z,97076.16
2022-10-05T01:32:50.147Z,97077.78
2022-10-05T01:35:32.064Z,97081.50
2022-10-05T01:38:18.543Z,97078.78
2022-10-05T01:40:59.367Z,97077.72
2022-10-05T01:43:35.813Z,97072.13
2022-10-05T01:46:13.222Z,97074.44
2022-10-05T01:48:55.247Z,97077.59
2022-10-05T01:51:35.036Z,97073.63
2022-10-05T01:54:15.569Z,97077.53
2022-10-05T01:56:54.646Z,97073.59
2022-10-05T01:59:38.536Z,97077.50
2022-10-05T02:02:12.294Z,97065.75
2022-10-05T02:05:02.589Z,97070.16
2022-10-05T02:07:37.539Z,97075.94
2022-10-05T02:10:10.137Z,97069.09
2022-10-05T02:12:40.094Z,97068.28
2022-10-05T02:15:15.234Z,97068.72
2022-10-05T02:17:50.081Z,97073.13
2022-10-05T02:20:26.470Z,97067.75
2022-10-05T02:22:57.055Z,97058.41
2022-10-05T02:25:30.923Z,97055.53
2022-10-05T02:28:05.695Z,97026.13
2022-10-05T02:30:42.510Z,97054.91
2022-10-05T02:33:19.178Z,97056.53
2022-10-05T02:35:48.142Z,97050.72
2022-10-05T02:38:27.815Z,97047.59
2022-10-05T02:41:07.250Z,97036.91
2022-10-05T02:43:49.545Z,97027.16
2022-10-05T02:46:29.872Z,97031.53
2022-10-05T02:49:08.844Z,97035.47
2022-10-05T02:51:44.909Z,97045.84
2022-10-05T02:54:22.928Z,97060.38
2022-10-05T02:57:01.533Z,97051.41
2022-10-05T02:59:37.553Z,97048.09
2022-10-05T03:02:16.475Z,97041.28
2022-10-05T03:05:00.228Z,97033.81
2022-10-05T03:07:33.559Z,97050.66
2022-10-05T03:10:10.523Z,97052.50
2022-10-05T03:12:52.933Z,97020.34
2022-10-05T03:15:50.864Z,97033.25
2022-10-05T03:18:33.726Z,97045.13
2022-10-05T03:21:14.454Z,97054.84
2022-10-05T03:23:54.364Z,97054.84
2022-10-05T03:26:34.272Z,97060.25
2022-10-05T03:29:13.310Z,97049.88
2022-10-05T03:31:50.321Z,97052.16
2022-10-05T03:34:26.329Z,97052.59
2022-10-05T03:37:04.447Z,97045.91
2022-10-05T03:39:40.612Z,97039.31
2022-10-05T03:42:21.023Z,97042.59
2022-10-05T03:44:58.498Z,97038.44
2022-10-05T03:47:33.835Z,97033.66
2022-10-05T03:50:20.086Z,97039.09
2022-10-05T03:52:51.979Z,97040.75
2022-10-05T03:55:29.926Z,97037.84
2022-10-05T03:58:07.596Z,97041.81
2022-10-05T04:00:37.969Z,97046.97
2022-10-05T04:03:13.419Z,97043.22
2022-10-05T04:05:48.216Z,97046.59
2022-10-05T04:08:24.641Z,97037.28
2022-10-05T04:10:56.500Z,97041.00
2022-10-05T04:13:32.576Z,97036.47
2022-10-05T04:16:08.154Z,97037.09
2022-10-05T04:18:41.489Z,97035.63
2022-10-05T04:21:23.541Z,97035.41
2022-10-05T04:24:00.466Z,97028.16
2022-10-05T04:26:37.086Z,97026.09
2022-10-05T04:29:17.395Z,97024.44
2022-10-05T04:32:05.152Z,97029.81
2022-10-05T04:34:54.427Z,97024.81
2022-10-05T04:37:35.844Z,97025.88
2022-10-05T04:40:20.957Z,97032.09
2022-10-05T04:43:02.329Z,97027.97
2022-10-05T04:45:46.811Z,97039.97
2022-10-05T04:48:41.232Z,97042.91
2022-10-05T04:51:34.653Z,97041.66
2022-10-05T04:54:18.229Z,97047.47
2022-10-05T04:56:50.423Z,97049.94
2022-10-05T04:59:47.072Z,97048.69
2022-10-05T05:02:27.928Z,97049.53
2022-10-05T05:05:18.868Z,97058.66
2022-10-05T05:07:55.107Z,97063.22
2022-10-05T05:10:55.101Z,97063.66
2022-10-05T05:13:43.474Z,97060.09
2022-10-05T05:16:16.183Z,97062.63
2022-10-05T05:19:08.205Z,97061.16
2022-10-05T05:21:43.759Z,97055.75
2022-10-05T05:24:24.911Z,97060.94
2022-10-05T05:27:20.312Z,97054.94
2022-10-05T05:29:58.876Z,97061.75
2022-10-05T05:32:40.358Z,97053.69
2022-10-05T05:35:39.682Z,97059.50
2022-10-05T05:38:25.507Z,97056.19
2022-10-05T05:41:06.151Z,97033.78
2022-10-05T05:43:50.663Z,97050.34
2022-10-05T05:46:44.709Z,97051.00
2022-10-05T05:49:19.221Z,97056.16
2022-10-05T05:51:55.439Z,97058.47
2022-10-05T05:54:33.323Z,97055.34
2022-10-05T05:57:10.919Z,97060.31
2022-10-05T05:59:55.190Z,97059.28
2022-10-05T06:02:30.295Z,97055.75
2022-10-05T06:05:04.617Z,97066.75
2022-10-05T06:07:33.591Z,97065.31
2022-10-05T06:10:07.216Z,97058.06
2022-10-05T06:12:49.755Z,97065.50
2022-10-05T06:15:30.351Z,97066.16
2022-10-05T06:18:02.560Z,97061.38
2022-10-05T06:20:39.627Z,97061.75
2022-10-05T06:23:15.009Z,97064.88
2022-10-05T06:25:59.291Z,97070.28
2022-10-05T06:28:30.831Z,97060.97
2022-10-05T06:31:10.337Z,97037.09
2022-10-05T06:33:48.854Z,97062.41
2022-10-05T06:36:32.891Z,97062.81
2022-10-05T06:39:44.073Z,97059.47
2022-10-05T06:42:40.049Z,97054.47
2022-10-05T06:45:43.707Z,97065.44
2022-10-05T06:48:40.270Z,97063.78
2022-10-05T06:51:51.394Z,97063.38
2022-10-05T06:54:41.434Z,97069.97
2022-10-05T06:57:19.669Z,97075.97
2022-10-05T06:59:57.649Z,97076.16
2022-10-05T07:02:33.979Z,97080.91
2022-10-05T07:05:30.724Z,97084.19
2022-10-05T07:08:01.431Z,97087.91
2022-10-05T07:10:34.414Z,97087.00
2022-10-05T07:13:18.170Z,97094.00
2022-10-05T07:15:58.734Z,97100.59
2022-10-05T07:18:51.204Z,97098.63
2022-10-05T07:21:30.253Z,97102.50
2022-10-05T07:24:06.012Z,97111.59
2022-10-05T07:26:42.774Z,97113.38
2022-10-05T07:29:23.419Z,97108.91
2022-10-05T07:32:05.226Z,97108.59
2022-10-05T07:34:47.526Z,97112.41
2022-10-05T07:37:44.756Z,97108.56
2022-10-05T07:40:20.486Z,97119.81
2022-10-05T07:43:00.852Z,97121.94
2022-10-05T07:45:34.706Z,97132.03
2022-10-05T07:48:15.254Z,97128.69
2022-10-05T07:50:57.848Z,97129.72
2022-10-05T07:53:34.611Z,97122.25
2022-10-05T07:56:10.396Z,97128.13
2022-10-05T07:58:44.840Z,97127.69
2022-10-05T08:01:20.048Z,97141.56
2022-10-05T08:03:57.364Z,97134.06
2022-10-05T08:06:44.327Z,97143.53
2022-10-05T08:09:30.049Z,97138.38
2022-10-05T08:12:08.898Z,97138.59
2022-10-05T08:14:45.975Z,97139.06
2022-10-05T08:17:25.584Z,97143.72
2022-10-05T08:20:00.738Z,97141.81
2022-10-05T08:22:34.985Z,97142.84
2022-10-05T08:25:07.173Z,97137.72
2022-10-05T08:27:43.288Z,97137.94
2022-10-05T08:30:14.298Z,97142.75
2022-10-05T08:32:52.672Z,97142.09
2022-10-05T08:35:29.849Z,97145.09
2022-10-05T08:37:59.680Z,97135.53
2022-10-05T08:41:31.143Z,97134.56
2022-10-05T08:44:40.341Z,97138.31
2022-10-05T08:47:19.790Z,97135.84
2022-10-05T08:50:06.244Z,97145.69
2022-10-05T08:52:45.910Z,97146.31
2022-10-05T08:55:30.313Z,97141.75
2022-10-05T08:58:34.323Z,97146.72
2022-10-05T09:01:11.067Z,97148.44
2022-10-05T09:04:01.004Z,97148.44
2022-10-05T09:06:52.964Z,97153.28
2022-10-05T09:09:37.731Z,97152.81
2022-10-05T09:12:28.652Z,97154.97
2022-10-05T09:15:27.118Z,97159.38
2022-10-05T09:18:38.209Z,97150.72
2022-10-05T09:21:15.467Z,97158.56
2022-10-05T09:23:46.843Z,97152.88
2022-10-05T09:26:43.916Z,97144.56
2022-10-05T09:29:34.802Z,97146.84
2022-10-05T09:32:33.122Z,97150.28
2022-10-05T09:35:24.664Z,97152.81
2022-10-05T09:38:19.611Z,97149.25
2022-10-05T09:41:18.840Z,97142.41
2022-10-05T09:44:22.032Z,97147.44
2022-10-05T09:47:12.341Z,97140.63
2022-10-05T09:50:09.413Z,97136.81
2022-10-05T09:53:07.103Z,97131.59
2022-10-05T09:56:01.272Z,97129.47
2022-10-05T09:58:58.164Z,97128.41
2022-10-05T10:01:41.748Z,97133.34
2022-10-05T10:04:29.715Z,97136.13
2022-10-05T10:07:28.790Z,97130.94
2022-10-05T10:10:33.408Z,97127.94
2022-10-05T10:13:25.997Z,97126.03
2022-10-05T10:16:09.716Z,97113.13
2022-10-05T10:19:06.489Z,97128.44
2022-10-05T10:22:06.202Z,97130.28
2022-10-05T10:24:55.556Z,97142.91
2022-10-05T10:27:51.626Z,97141.97
2022-10-05T10:30:46.188Z,97126.13
2022-10-05T10:33:34.013Z,97133.13
2022-10-05T10:36:08.323Z,97123.25
2022-10-05T10:38:41.677Z,97131.28
2022-10-05T10:41:28.944Z,97127.72
2022-10-05T10:44:47.515Z,97129.06
2022-10-05T10:47:40.775Z,97126.69
2022-10-05T10:50:44.458Z,97120.09
2022-10-05T10:53:35.511Z,97123.34
2022-10-05T10:56:22.407Z,97125.09
2022-10-05T10:59:33.317Z,97121.22
2022-10-05T11:02:21.416Z,97120.94
2022-10-05T11:05:15.049Z,97116.75
2022-10-05T11:08:13.744Z,97110.94
2022-10-05T11:11:14.500Z,97106.03
2022-10-05T11:14:22.472Z,97100.47
2022-10-05T11:17:31.958Z,97100.56
2022-10-05T11:20:16.446Z,97105.50
2022-10-05T11:23:00.309Z,97111.13
2022-10-05T11:26:01.890Z,97101.47
2022-10-05T11:28:49.110Z,97099.63
2022-10-05T11:31:48.903Z,97094.13
2022-10-05T11:34:44.020Z,97080.69
2022-10-05T11:37:40.343Z,97085.50
2022-10-05T11:40:52.228Z,97080.88
2022-10-05T11:43:51.916Z,97073.84
2022-10-05T11:46:26.643Z,97076.59
2022-10-05T11:49:18.124Z,97068.59
2022-10-05T11:51:57.093Z,97063.88
2022-10-05T11:55:16.920Z,97060.13
2022-10-05T11:57:52.047Z,97064.94
2022-10-05T12:00:23.186Z,97049.53
2022-10-05T12:03:04.237Z,97052.19
2022-10-05T12:05:43.426Z,97051.97
2022-10-05T12:08:25.652Z,97057.31
2022-10-05T12:11:07.685Z,97060.81
2022-10-05T12:13:43.304Z,97052.34
2022-10-05T12:16:20.585Z,97043.84
2022-10-05T12:19:01.263Z,97045.81
2022-10-05T12:21:36.408Z,97040.28
2022-10-05T12:24:15.141Z,97044.38
2022-10-05T12:26:51.763Z,97033.72
2022-10-05T12:29:26.533Z,97040.78
2022-10-05T12:32:03.440Z,97033.13
2022-10-05T12:34:44.897Z,97036.69
2022-10-05T12:37:37.605Z,97032.16
2022-10-05T12:40:21.003Z,97030.13
2022-10-05T12:42:56.587Z,97024.13
2022-10-05T12:45:37.569Z,97037.16
2022-10-05T12:48:32.367Z,97018.81
2022-10-05T12:51:08.929Z,97027.44
2022-10-05T12:53:48.437Z,97020.69
2022-10-05T12:56:30.008Z,97018.00
2022-10-05T12:59:05.689Z,97022.22
2022-10-05T13:01:42.855Z,97019.19
2022-10-05T13:04:23.282Z,97024.03
2022-10-05T13:07:05.627Z,97017.84
2022-10-05T13:09:41.038Z,97020.81
2022-10-05T13:12:20.815Z,97027.00
2022-10-05T13:14:58.607Z,97020.63
2022-10-05T13:17:35.379Z,97019.84
2022-10-05T13:20:14.353Z,97017.59
2022-10-05T13:22:47.836Z,97019.97
2022-10-05T13:25:23.652Z,97015.72
2022-10-05T13:28:10.864Z,97020.44
2022-10-05T13:30:43.007Z,97022.09
2022-10-05T13:33:19.170Z,97017.78
2022-10-05T13:35:55.489Z,97018.13
2022-10-05T13:38:36.436Z,97026.00
2022-10-05T13:41:19.205Z,97024.97
2022-10-05T13:43:59.548Z,97019.34
2022-10-05T13:46:37.320Z,97020.91
2022-10-05T13:49:22.320Z,97009.22
2022-10-05T13:52:02.078Z,97016.28
2022-10-05T13:54:38.911Z,97014.56
2022-10-05T13:57:18.519Z,97012.28
2022-10-05T13:59:54.909Z,97004.91
2022-10-05T14:02:30.580Z,97020.66
2022-10-05T14:05:01.293Z,97014.31
2022-10-05T14:07:34.225Z,97019.63
2022-10-05T14:10:04.606Z,97013.44
2022-10-05T14:12:40.899Z,97016.69
2022-10-05T14:15:38.467Z,97011.25
2022-10-05T14:18:24.859Z,97006.63
2022-10-05T14:21:02.958Z,97011.91
2022-10-05T14:23:32.450Z,97002.47
2022-10-05T14:26:04.154Z,97006.66
2022-10-05T14:28:39.086Z,96991.22
2022-10-05T14:31:15.581Z,96998.16
2022-10-05T14:33:44.704Z,96985.88
2022-10-05T14:36:17.226Z,96970.72
2022-10-05T14:38:55.105Z,96991.47
2022-10-05T14:41:27.941Z,96980.19
2022-10-05T14:44:02.512Z,96984.47
2022-10-05T14:46:35.904Z,96979.34
2022-10-05T14:49:25.998Z,96982.94
2022-10-05T14:51:56.164Z,96970.38
2022-10-05T14:54:35.499Z,96973.72
2022-10-05T14:57:16.552Z,96968.47
2022-10-05T15:00:04.365Z,96958.13
2022-10-05T15:02:55.589Z,96960.53
2022-10-05T15:05:31.545Z,96966.72
2022-10-05T15:08:10.505Z,96963.50
2022-10-05T15:10:44.543Z,96959.78
2022-10-05T15:13:17.463Z,96957.72
2022-10-05T15:15:52.026Z,96959.22
2022-10-05T15:18:34.773Z,96958.75
2022-10-05T15:21:24.404Z,96965.22
2022-10-05T15:23:57.476Z,96962.31
2022-10-05T15:26:36.371Z,96958.59
2022-10-05T15:29:18.659Z,96957.44
2022-10-05T15:32:00.688Z,96953.91
2022-10-05T15:34:40.792Z,96964.47
2022-10-05T15:37:17.222Z,96952.97
2022-10-05T15:39:51.988Z,96958.31
2022-10-05T15:42:26.601Z,96960.06
2022-10-05T15:47:51.168Z,96950.09
2022-10-05T15:50:25.168Z,96950.44
2022-10-05T15:52:59.344Z,96942.53
2022-10-05T15:55:43.268Z,96937.94
2022-10-05T15:58:31.655Z,96947.91
2022-10-05T16:01:07.967Z,96948.22
2022-10-05T16:03:49.127Z,96950.78
2022-10-05T16:06:51.236Z,96955.47
2022-10-05T16:09:36.977Z,96952.25
2022-10-05T16:12:19.180Z,96951.53
2022-10-05T16:15:01.402Z,96944.47
2022-10-05T16:17:40.937Z,96956.53
2022-10-05T16:20:30.266Z,96955.25
2022-10-05T16:23:07.754Z,96951.41
2022-10-05T16:26:01.705Z,96946.81
2022-10-05T16:28:40.635Z,96941.38
2022-10-05T16:31:18.653Z,96941.72
2022-10-05T16:33:59.852Z,96939.84
2022-10-05T16:36:45.833Z,96949.78
2022-10-05T16:39:21.223Z,96942.94
2022-10-05T16:41:58.027Z,96945.94
2022-10-05T16:44:37.722Z,96938.00
2022-10-05T16:47:27.607Z,96943.25
2022-10-05T16:50:02.400Z,96949.59
2022-10-05T16:52:35.013Z,96949.94
2022-10-05T16:55:12.053Z,96951.63
2022-10-05T16:57:45.085Z,96950.22
2022-10-05T17:00:20.606Z,96949.41
2022-10-05T17:03:03.000Z,96952.69
2022-10-05T17:05:49.086Z,96953.53
2022-10-05T17:08:41.544Z,96951.09
2022-10-05T17:11:24.495Z,96953.81
2022-10-05T17:14:16.566Z,96956.56
2022-10-05T17:17:01.423Z,96953.56
2022-10-05T17:19:45.682Z,96960.97
2022-10-05T17:22:25.056Z,96953.28
2022-10-05T17:25:05.000Z,96961.81
2022-10-05T17:27:51.319Z,96949.47
2022-10-05T17:30:36.926Z,96962.63
2022-10-05T17:33:20.732Z,96965.63
2022-10-05T17:36:12.521Z,96981.25
2022-10-05T17:38:50.172Z,96984.53
2022-10-05T17:41:25.976Z,96986.16
2022-10-05T17:44:21.081Z,96989.44
2022-10-05T17:46:51.054Z,96997.13
2022-10-05T17:50:10.151Z,97002.06
2022-10-05T17:53:01.276Z,97002.03
2022-10-05T17:56:02.149Z,96991.88
2022-10-05T17:59:07.249Z,96999.25
2022-10-05T18:01:38.314Z,96998.66
2022-10-05T18:04:26.595Z,97004.16
2022-10-05T18:07:03.216Z,97010.97
2022-10-05T18:09:36.172Z,97013.69
2022-10-05T18:12:26.130Z,97017.22
2022-10-05T18:15:02.189Z,97023.19
2022-10-05T18:17:46.369Z,97028.09
2022-10-05T18:20:28.144Z,97019.91
2022-10-05T18:23:30.217Z,97019.84
2022-10-05T18:26:06.566Z,97031.56
2022-10-05T18:28:51.954Z,97029.38
2022-10-05T18:31:34.350Z,97038.38
2022-10-05T18:34:16.549Z,97037.81
2022-10-05T18:37:00.165Z,97038.91
2022-10-05T18:39:47.310Z,97035.59
2022-10-05T18:42:23.502Z,97037.75
2022-10-05T18:44:58.501Z,97037.75
2022-10-05T18:47:38.018Z,97046.19
2022-10-05T18:50:21.301Z,97052.16
2022-10-05T18:53:04.563Z,97049.84
2022-10-05T18:55:39.555Z,97049.47
2022-10-05T18:58:17.681Z,97048.31
2022-10-05T19:01:07.006Z,97054.28
2022-10-05T19:03:47.188Z,97049.00
2022-10-05T19:06:25.854Z,97053.66
2022-10-05T19:09:03.533Z,97052.50
2022-10-05T19:11:41.241Z,97062.28
2022-10-05T19:14:21.155Z,97056.59
2022-10-05T19:17:01.000Z,97065.06
2022-10-05T19:19:53.819Z,97065.88
2022-10-05T19:22:33.929Z,97065.59
2022-10-05T19:25:22.060Z,97078.16
2022-10-05T19:28:01.735Z,97077.28
2022-10-05T19:30:42.800Z,97068.75
2022-10-05T19:33:26.020Z,97083.44
2022-10-05T19:36:09.068Z,97080.06
2022-10-05T19:38:45.858Z,97083.00
2022-10-05T19:41:18.538Z,97088.16
2022-10-05T19:44:03.450Z,97090.50
2022-10-05T19:46:49.674Z,97098.69
2022-10-05T19:49:37.308Z,97092.94
2022-10-05T19:52:13.862Z,97104.41
2022-10-05T19:54:43.774Z,97098.00
2022-10-05T19:57:17.961Z,97110.22
2022-10-05T19:59:48.618Z,97104.19
2022-10-05T20:02:18.134Z,97109.34
2022-10-05T20:04:49.672Z,97102.47
2022-10-05T20:07:21.602Z,97116.06
2022-10-05T20:09:53.760Z,97113.28
2022-10-05T20:12:23.036Z,97114.63
2022-10-05T20:15:26.991Z,97120.31
2022-10-05T20:18:12.691Z,97115.94
2022-10-05T20:20:45.810Z,97125.19
2022-10-05T20:23:23.705Z,97125.72
2022-10-05T20:26:11.402Z,97125.09
2022-10-05T20:28:39.888Z,97133.81
2022-10-05T20:31:08.649Z,97133.81
2022-10-05T20:33:40.530Z,97140.59
2022-10-05T20:36:12.247Z,97146.28
2022-10-05T20:38:43.541Z,97144.63
2022-10-05T20:41:12.639Z,97152.78
2022-10-05T20:43:41.226Z,97151.84
2022-10-05T20:46:09.594Z,97157.56
2022-10-05T20:48:38.927Z,97158.22
2022-10-05T20:51:07.455Z,97153.03
2022-10-05T20:53:36.194Z,97161.47
2022-10-05T20:56:06.954Z,97168.47
2022-10-05T20:58:35.318Z,97167.06
2022-10-05T21:01:17.634Z,97166.97
2022-10-05T21:03:47.182Z,97169.13
2022-10-05T21:06:15.591Z,97174.84
2022-10-05T21:08:46.790Z,97179.47
2022-10-05T21:11:17.241Z,97175.66
2022-10-05T21:13:46.253Z,97176.75
2022-10-05T21:16:17.125Z,97184.56
2022-10-05T21:18:48.688Z,97187.81
2022-10-05T21:21:18.847Z,97183.66
2022-10-05T21:23:48.794Z,97179.53
2022-10-05T21:26:18.506Z,97184.41
2022-10-05T21:28:47.835Z,97193.88
2022-10-05T21:31:16.296Z,97188.94
2022-10-05T21:33:45.319Z,97191.31
2022-10-05T21:36:14.559Z,97190.16
2022-10-05T21:38:44.163Z,97199.06
2022-10-05T21:41:12.558Z,97209.97
2022-10-05T21:43:43.194Z,97200.00
2022-10-05T21:46:14.552Z,97206.22
2022-10-05T21:48:43.885Z,97204.72
2022-10-05T21:51:16.967Z,97204.47
2022-10-05T21:53:52.726Z,97204.47
2022-10-05T21:56:23.586Z,97213.44
2022-10-05T21:58:53.581Z,97213.84
2022-10-05T22:01:23.064Z,97223.56
2022-10-05T22:03:52.074Z,97214.81
2022-10-05T22:06:20.786Z,97222.41
2022-10-05T22:08:49.350Z,97225.13
2022-10-05T22:11:19.060Z,97226.19
2022-10-05T22:13:49.673Z,97224.53
2022-10-05T22:16:21.920Z,97228.31
2022-10-05T22:18:50.961Z,97237.56
2022-10-05T22:21:21.067Z,97231.19
2022-10-05T22:23:49.442Z,97240.16
2022-10-05T22:26:20.641Z,97240.41
2022-10-05T22:28:49.656Z,97249.41
2022-10-05T22:31:19.979Z,97236.53
2022-10-05T22:33:48.841Z,97242.13
2022-10-05T22:36:17.600Z,97243.56
2022-10-05T22:38:47.039Z,97247.31
2022-10-05T22:41:18.142Z,97247.00
2022-10-05T22:43:50.184Z,97242.88
2022-10-05T22:46:20.284Z,97246.53
2022-10-05T22:48:49.511Z,97256.81
2022-10-05T22:51:18.422Z,97264.75
2022-10-05T22:53:46.775Z,97265.59
2022-10-05T22:56:16.892Z,97266.53
2022-10-05T22:58:47.288Z,97264.06
2022-10-05T23:01:18.128Z,97262.75
2022-10-05T23:03:48.950Z,97262.41
2022-10-05T23:06:19.223Z,97262.63
2022-10-05T23:08:48.930Z,97262.41
2022-10-05T23:11:19.426Z,97271.59
2022-10-05T23:13:48.379Z,97275.75
2022-10-05T23:16:18.947Z,97276.72
2022-10-05T23:18:50.944Z,97279.53
2022-10-05T23:21:20.723Z,97288.41
2022-10-05T23:23:51.513Z,97291.63
2022-10-05T23:26:22.810Z,97285.59
2022-10-05T23:28:51.595Z,97289.72
2022-10-05T23:31:21.990Z,97291.38
2022-10-05T23:33:52.547Z,97301.28
2022-10-05T23:36:23.359Z,97304.25
2022-10-05T23:38:52.527Z,97298.09
2022-10-05T23:41:22.013Z,97311.22
2022-10-05T23:43:51.003Z,97316.19
2022-10-05T23:46:19.688Z,97309.16
2022-10-05T23:48:50.335Z,97308.69
2022-10-05T23:51:20.196Z,97309.41
2022-10-05T23:53:49.527Z,97323.81
2022-10-05T23:56:17.907Z,97304.88
2022-10-05T23:58:47.019Z,97319.19
